createdAt,value
2022-08-26T00:01:29.762Z,686.47
2022-08-26T00:03:56.565Z,688.33
2022-08-26T00:06:23.151Z,677.17
2022-08-26T00:08:49.625Z,674.70
2022-08-26T00:11:16.111Z,681.70
2022-08-26T00:13:53.457Z,674.23
2022-08-26T00:16:19.931Z,679.47
2022-08-26T00:18:46.489Z,692.10
2022-08-26T00:21:12.941Z,674.17
2022-08-26T00:23:39.543Z,684.73
2022-08-26T00:26:06.452Z,673.93
2022-08-26T00:28:34.849Z,688.80
2022-08-26T00:31:01.320Z,695.27
2022-08-26T00:33:28.009Z,681.70
2022-08-26T00:35:54.471Z,680.40
2022-08-26T00:38:22.004Z,678.47
2022-08-26T00:40:49.465Z,687.43
2022-08-26T00:43:16.974Z,683.13
2022-08-26T00:45:43.517Z,685.70
2022-08-26T00:48:10.033Z,683.07
2022-08-26T00:50:36.476Z,685.50
2022-08-26T00:53:02.909Z,696.27
2022-08-26T00:55:37.796Z,692.50
2022-08-26T00:58:04.708Z,684.97
2022-08-26T01:00:31.149Z,680.03
2022-08-26T01:02:57.583Z,681.37
2022-08-26T01:05:24.298Z,684.27
2022-08-26T01:07:50.878Z,677.00
2022-08-26T01:10:17.316Z,684.87
2022-08-26T01:12:43.748Z,690.17
2022-08-26T01:15:10.194Z,689.43
2022-08-26T01:17:37.943Z,694.43
2022-08-26T01:20:04.444Z,680.90
2022-08-26T01:22:31.070Z,691.83
2022-08-26T01:24:57.511Z,679.90
2022-08-26T01:27:24.318Z,682.17
2022-08-26T01:29:50.789Z,683.90
2022-08-26T01:32:17.261Z,689.90
2022-08-26T01:34:43.734Z,688.70
2022-08-26T01:37:13.782Z,684.07
2022-08-26T01:39:42.518Z,694.43
2022-08-26T01:42:11.355Z,687.20
2022-08-26T01:44:39.175Z,688.13
2022-08-26T01:47:05.992Z,692.73
2022-08-26T01:49:32.984Z,693.20
2022-08-26T01:52:00.932Z,695.87
2022-08-26T01:54:27.368Z,677.10
2022-08-26T01:56:53.833Z,692.90
2022-08-26T01:59:20.315Z,685.13
2022-08-26T02:01:46.816Z,692.13
2022-08-26T02:04:13.298Z,694.50
2022-08-26T02:06:39.861Z,690.10
2022-08-26T02:09:06.369Z,700.20
2022-08-26T02:11:32.842Z,690.23
2022-08-26T02:13:59.284Z,691.20
2022-08-26T02:16:25.806Z,693.00
2022-08-26T02:18:53.374Z,683.50
2022-08-26T02:21:19.940Z,686.43
2022-08-26T02:23:46.414Z,692.93
2022-08-26T02:26:12.870Z,691.53
2022-08-26T02:28:44.339Z,691.60
2022-08-26T02:31:10.857Z,682.80
2022-08-26T02:33:37.341Z,689.00
2022-08-26T02:36:09.644Z,686.23
2022-08-26T02:38:39.850Z,689.17
2022-08-26T02:41:09.571Z,690.20
2022-08-26T02:43:36.845Z,685.80
2022-08-26T02:46:03.636Z,697.87
2022-08-26T02:48:30.975Z,691.53
2022-08-26T02:50:57.446Z,691.50
2022-08-26T02:53:25.487Z,702.13
2022-08-26T02:55:52.157Z,694.07
2022-08-26T02:58:18.611Z,688.30
2022-08-26T03:00:52.612Z,696.93
2022-08-26T03:03:19.660Z,697.07
2022-08-26T03:05:48.928Z,699.13
2022-08-26T03:08:15.445Z,691.07
2022-08-26T03:10:41.909Z,693.13
2022-08-26T03:13:08.436Z,682.73
2022-08-26T03:15:35.207Z,683.07
2022-08-26T03:18:01.652Z,690.40
2022-08-26T03:20:28.101Z,689.73
2022-08-26T03:22:56.168Z,695.67
2022-08-26T03:25:22.711Z,686.07
2022-08-26T03:27:50.243Z,683.43
2022-08-26T03:30:16.691Z,686.77
2022-08-26T03:32:43.116Z,700.23
2022-08-26T03:35:09.585Z,700.17
2022-08-26T03:37:36.051Z,690.63
2022-08-26T03:40:02.528Z,689.77
2022-08-26T03:42:28.982Z,694.40
2022-08-26T03:44:55.516Z,689.20
2022-08-26T03:47:21.973Z,687.23
2022-08-26T03:49:48.433Z,691.20
2022-08-26T03:52:14.918Z,690.07
2022-08-26T03:54:41.368Z,692.17
2022-08-26T03:57:09.996Z,698.63
2022-08-26T03:59:36.423Z,686.20
2022-08-26T04:02:03.448Z,702.00
2022-08-26T04:04:35.125Z,717.13
2022-08-26T04:07:01.582Z,702.47
2022-08-26T04:09:29.087Z,701.80
2022-08-26T04:11:55.556Z,680.50
2022-08-26T04:14:23.304Z,702.10
2022-08-26T04:16:49.780Z,698.90
2022-08-26T04:19:16.235Z,697.20
2022-08-26T04:21:42.748Z,691.70
2022-08-26T04:24:12.095Z,686.10
2022-08-26T04:26:39.512Z,695.20
2022-08-26T04:29:09.394Z,700.43
2022-08-26T04:31:35.915Z,692.83
2022-08-26T04:34:02.386Z,703.93
2022-08-26T04:36:28.955Z,706.07
2022-08-26T04:38:55.442Z,704.23
2022-08-26T04:41:22.464Z,708.80
2022-08-26T04:43:49.085Z,700.87
2022-08-26T04:46:15.583Z,700.07
2022-08-26T04:48:42.439Z,695.83
2022-08-26T04:51:08.914Z,695.30
2022-08-26T04:53:36.225Z,692.70
2022-08-26T04:56:03.247Z,689.33
2022-08-26T04:58:30.818Z,696.50
2022-08-26T05:00:57.291Z,699.03
2022-08-26T05:03:23.735Z,700.73
2022-08-26T05:05:50.230Z,703.77
2022-08-26T05:08:16.679Z,698.87
2022-08-26T05:10:43.587Z,696.97
2022-08-26T05:13:10.972Z,702.33
2022-08-26T05:15:38.171Z,689.00
2022-08-26T05:18:04.648Z,702.20
2022-08-26T05:20:31.147Z,689.10
2022-08-26T05:22:57.596Z,699.47
2022-08-26T05:25:24.034Z,688.47
2022-08-26T05:27:53.908Z,692.33
2022-08-26T05:30:20.871Z,697.93
2022-08-26T05:32:47.474Z,692.30
2022-08-26T05:35:13.962Z,690.87
2022-08-26T05:37:42.429Z,688.87
2022-08-26T05:40:08.938Z,698.27
2022-08-26T05:42:36.910Z,693.37
2022-08-26T05:45:03.375Z,696.43
2022-08-26T05:47:30.658Z,699.03
2022-08-26T05:49:57.195Z,700.40
2022-08-26T05:52:24.590Z,692.87
2022-08-26T05:54:52.491Z,698.73
2022-08-26T05:57:18.950Z,708.60
2022-08-26T05:59:51.267Z,691.90
2022-08-26T06:02:17.759Z,685.87
2022-08-26T06:04:45.821Z,700.90
2022-08-26T06:07:12.300Z,700.10
2022-08-26T06:09:40.073Z,694.20
2022-08-26T06:12:06.550Z,704.93
2022-08-26T06:14:35.978Z,706.27
2022-08-26T06:17:02.440Z,693.70
2022-08-26T06:19:33.056Z,701.67
2022-08-26T06:22:00.940Z,699.17
2022-08-26T06:24:30.873Z,712.07
2022-08-26T06:26:57.344Z,720.50
2022-08-26T06:29:24.488Z,710.37
2022-08-26T06:31:51.293Z,711.33
2022-08-26T06:34:18.080Z,712.40
2022-08-26T06:36:44.538Z,700.80
2022-08-26T06:39:10.997Z,709.47
2022-08-26T06:41:41.436Z,708.80
2022-08-26T06:44:09.901Z,713.67
2022-08-26T06:46:36.552Z,715.57
2022-08-26T06:49:03.185Z,715.77
2022-08-26T06:51:29.678Z,715.63
2022-08-26T06:53:56.665Z,718.80
2022-08-26T06:56:24.444Z,715.93
2022-08-26T06:58:50.922Z,720.17
2022-08-26T07:01:18.204Z,718.50
2022-08-26T07:03:46.552Z,719.63
2022-08-26T07:06:13.356Z,717.03
2022-08-26T07:08:39.839Z,710.67
2022-08-26T07:11:06.864Z,717.73
2022-08-26T07:13:34.931Z,771.90
2022-08-26T07:16:02.891Z,721.33
2022-08-26T07:18:29.791Z,718.87
2022-08-26T07:20:56.230Z,716.23
2022-08-26T07:23:23.221Z,719.57
2022-08-26T07:25:49.677Z,718.87
2022-08-26T07:28:16.147Z,722.20
2022-08-26T07:30:44.222Z,721.33
2022-08-26T07:33:10.848Z,716.10
2022-08-26T07:35:38.460Z,717.80
2022-08-26T07:38:04.944Z,723.23
2022-08-26T07:40:31.452Z,717.10
2022-08-26T07:42:57.977Z,720.50
2022-08-26T07:45:27.416Z,716.53
2022-08-26T07:47:53.900Z,716.73
2022-08-26T07:50:20.418Z,716.57
2022-08-26T07:52:47.455Z,711.93
2022-08-26T07:55:13.945Z,710.73
2022-08-26T07:57:40.431Z,719.00
2022-08-26T08:00:07.121Z,714.93
2022-08-26T08:02:33.575Z,715.20
2022-08-26T08:05:01.135Z,720.67
2022-08-26T08:07:44.407Z,724.50
2022-08-26T08:10:11.800Z,714.40
2022-08-26T08:12:39.299Z,715.43
2022-08-26T08:15:05.803Z,717.60
2022-08-26T08:17:32.282Z,711.60
2022-08-26T08:19:58.989Z,708.17
2022-08-26T08:22:25.471Z,708.60
2022-08-26T08:24:53.781Z,710.57
2022-08-26T08:27:23.770Z,707.30
2022-08-26T08:29:50.772Z,708.60
2022-08-26T08:32:18.729Z,707.30
2022-08-26T08:34:45.470Z,707.00
2022-08-26T08:37:11.991Z,708.17
2022-08-26T08:39:38.436Z,706.77
2022-08-26T08:42:04.888Z,700.10
2022-08-26T08:44:31.502Z,702.70
2022-08-26T08:46:59.489Z,707.20
2022-08-26T08:49:26.111Z,709.77
2022-08-26T08:51:53.805Z,712.97
2022-08-26T08:54:22.160Z,711.13
2022-08-26T08:56:48.704Z,705.70
2022-08-26T08:59:15.334Z,708.30
2022-08-26T09:01:41.822Z,695.80
2022-08-26T09:04:08.291Z,702.20
2022-08-26T09:06:35.154Z,707.73
2022-08-26T09:09:01.852Z,704.40
2022-08-26T09:11:28.329Z,704.77
2022-08-26T09:13:55.257Z,705.63
2022-08-26T09:16:21.719Z,706.50
2022-08-26T09:18:48.759Z,699.43
2022-08-26T09:21:15.272Z,707.73
2022-08-26T09:23:46.212Z,707.20
2022-08-26T09:26:15.695Z,711.90
2022-08-26T09:28:42.182Z,710.40
2022-08-26T09:31:11.175Z,716.13
2022-08-26T09:33:38.039Z,709.73
2022-08-26T09:36:04.583Z,710.33
2022-08-26T09:38:31.427Z,705.77
2022-08-26T09:40:59.269Z,699.70
2022-08-26T09:43:26.083Z,697.50
2022-08-26T09:45:58.373Z,709.40
2022-08-26T09:48:25.810Z,697.70
2022-08-26T09:50:52.420Z,706.13
2022-08-26T09:53:21.048Z,702.93
2022-08-26T09:55:51.783Z,707.77
2022-08-26T09:58:18.341Z,711.67
2022-08-26T10:00:45.260Z,707.23
2022-08-26T10:03:12.207Z,700.50
2022-08-26T10:05:43.882Z,707.90
2022-08-26T10:08:10.359Z,710.90
2022-08-26T10:10:36.910Z,711.40
2022-08-26T10:13:03.419Z,716.90
2022-08-26T10:15:29.888Z,723.40
2022-08-26T10:17:56.889Z,716.90
2022-08-26T10:20:24.091Z,711.97
2022-08-26T10:22:50.659Z,701.60
2022-08-26T10:25:18.197Z,714.47
2022-08-26T10:27:52.799Z,713.33
2022-08-26T10:30:19.953Z,708.87
2022-08-26T10:32:46.495Z,720.53
2022-08-26T10:35:12.926Z,717.10
2022-08-26T10:37:39.649Z,719.00
2022-08-26T10:40:07.055Z,718.07
2022-08-26T10:42:33.657Z,720.60
2022-08-26T10:45:00.146Z,722.10
2022-08-26T10:47:27.495Z,717.83
2022-08-26T10:49:56.528Z,722.63
2022-08-26T10:52:29.428Z,721.63
2022-08-26T10:54:56.095Z,714.97
2022-08-26T10:57:22.600Z,715.53
2022-08-26T10:59:50.537Z,714.50
2022-08-26T11:02:22.828Z,717.87
2022-08-26T11:04:51.231Z,724.30
2022-08-26T11:07:17.726Z,713.07
2022-08-26T11:09:44.210Z,714.77
2022-08-26T11:12:10.695Z,708.77
2022-08-26T11:14:44.667Z,723.70
2022-08-26T11:17:22.850Z,711.83
2022-08-26T11:20:01.203Z,716.60
2022-08-26T11:22:29.215Z,706.97
2022-08-26T11:24:55.682Z,717.97
2022-08-26T11:27:22.540Z,718.57
2022-08-26T11:29:50.723Z,720.43
2022-08-26T11:32:19.451Z,719.27
2022-08-26T11:34:46.012Z,718.87
2022-08-26T11:37:13.089Z,726.03
2022-08-26T11:39:43.267Z,719.00
2022-08-26T11:42:12.279Z,728.47
2022-08-26T11:44:38.719Z,730.60
2022-08-26T11:47:07.056Z,726.87
2022-08-26T11:49:38.058Z,721.80
2022-08-26T11:52:04.535Z,717.77
2022-08-26T11:54:35.181Z,726.13
2022-08-26T11:57:07.320Z,730.50
2022-08-26T12:02:07.110Z,729.10
2022-08-26T12:04:33.631Z,729.83
2022-08-26T12:07:00.807Z,728.43
2022-08-26T12:09:27.285Z,723.50
2022-08-26T12:11:53.717Z,723.00
2022-08-26T12:14:24.556Z,726.90
2022-08-26T12:16:51.009Z,737.10
2022-08-26T12:19:17.476Z,734.20
2022-08-26T12:21:44.059Z,737.50
2022-08-26T12:24:10.558Z,728.47
2022-08-26T12:26:37.014Z,732.90
2022-08-26T12:29:12.658Z,731.63
2022-08-26T12:31:46.939Z,737.40
2022-08-26T12:34:17.991Z,731.67
2022-08-26T12:36:44.923Z,737.10
2022-08-26T12:39:11.390Z,736.70
2022-08-26T12:41:38.100Z,739.33
2022-08-26T12:44:04.628Z,734.27
2022-08-26T12:46:31.059Z,728.63
2022-08-26T12:48:57.519Z,732.60
2022-08-26T12:51:23.951Z,735.20
2022-08-26T12:53:50.396Z,733.90
2022-08-26T12:56:16.866Z,733.10
2022-08-26T12:58:43.329Z,737.20
2022-08-26T13:01:09.914Z,737.10
2022-08-26T13:03:36.445Z,734.27
2022-08-26T13:06:02.902Z,736.90
2022-08-26T13:08:29.350Z,733.77
2022-08-26T13:10:55.860Z,742.23
2022-08-26T13:13:22.311Z,736.47
2022-08-26T13:15:48.900Z,745.73
2022-08-26T13:18:15.475Z,735.83
2022-08-26T13:20:41.948Z,734.10
2022-08-26T13:23:08.418Z,742.10
2022-08-26T13:25:34.846Z,745.23
2022-08-26T13:28:01.322Z,745.67
2022-08-26T13:30:27.751Z,748.63
2022-08-26T13:32:54.222Z,748.20
2022-08-26T13:35:21.260Z,735.17
2022-08-26T13:37:47.723Z,744.83
2022-08-26T13:40:15.055Z,746.37
2022-08-26T13:42:49.423Z,744.17
2022-08-26T13:45:16.482Z,743.80
2022-08-26T13:47:42.927Z,741.70
2022-08-26T13:50:09.383Z,740.03
2022-08-26T13:52:35.825Z,739.50
2022-08-26T13:55:02.283Z,748.03
2022-08-26T13:57:28.749Z,746.50
2022-08-26T13:59:55.219Z,743.57
2022-08-26T14:02:21.665Z,747.50
2022-08-26T14:04:48.143Z,747.97
2022-08-26T14:07:14.602Z,743.43
2022-08-26T14:09:41.063Z,747.67
2022-08-26T14:12:07.499Z,734.53
2022-08-26T14:14:34.025Z,739.70
2022-08-26T14:17:00.786Z,746.87
2022-08-26T14:19:27.302Z,748.20
2022-08-26T14:21:53.767Z,743.97
2022-08-26T14:24:20.255Z,742.33
2022-08-26T14:26:46.706Z,743.20
2022-08-26T14:29:16.152Z,747.87
2022-08-26T14:31:43.422Z,732.23
2022-08-26T14:34:09.955Z,739.93
2022-08-26T14:36:36.441Z,738.10
2022-08-26T14:39:02.909Z,738.00
2022-08-26T14:41:29.406Z,735.77
2022-08-26T14:43:55.861Z,741.73
2022-08-26T14:46:22.381Z,741.93
2022-08-26T14:48:48.929Z,735.57
2022-08-26T14:51:15.375Z,735.40
2022-08-26T14:53:41.832Z,736.47
2022-08-26T14:56:08.293Z,728.80
2022-08-26T14:58:35.171Z,733.43
2022-08-26T15:01:04.290Z,734.00
2022-08-26T15:03:31.013Z,735.70
2022-08-26T15:05:57.472Z,730.40
2022-08-26T15:08:23.971Z,730.77
2022-08-26T15:10:50.419Z,734.43
2022-08-26T15:13:16.855Z,737.63
2022-08-26T15:15:43.440Z,736.17
2022-08-26T15:18:10.151Z,738.90
2022-08-26T15:20:36.871Z,739.03
2022-08-26T15:23:06.084Z,739.80
2022-08-26T15:25:32.828Z,735.83
2022-08-26T15:27:59.275Z,736.30
2022-08-26T15:30:25.735Z,741.50
2022-08-26T15:32:52.172Z,740.97
2022-08-26T15:35:18.649Z,749.57
2022-08-26T15:37:45.150Z,747.10
2022-08-26T15:40:11.712Z,755.43
2022-08-26T15:42:38.203Z,754.77
2022-08-26T15:45:04.645Z,747.43
2022-08-26T15:47:31.072Z,757.13
2022-08-26T15:50:01.899Z,756.63
2022-08-26T15:52:28.333Z,753.97
2022-08-26T15:54:54.855Z,746.90
2022-08-26T15:57:21.852Z,753.37
2022-08-26T15:59:48.295Z,758.13
2022-08-26T16:02:14.798Z,750.17
2022-08-26T16:04:41.293Z,757.43
2022-08-26T16:07:10.071Z,758.13
2022-08-26T16:09:36.512Z,761.93
2022-08-26T16:12:03.030Z,752.30
2022-08-26T16:14:29.581Z,754.77
2022-08-26T16:16:57.448Z,753.90
2022-08-26T16:19:23.908Z,760.60
2022-08-26T16:21:50.339Z,758.00
2022-08-26T16:24:16.775Z,758.83
2022-08-26T16:26:43.245Z,759.83
2022-08-26T16:29:09.686Z,764.30
2022-08-26T16:31:36.158Z,760.73
2022-08-26T16:34:02.620Z,765.13
2022-08-26T16:36:29.087Z,767.03
2022-08-26T16:38:55.751Z,766.03
2022-08-26T16:41:22.191Z,765.10
2022-08-26T16:43:48.634Z,763.00
2022-08-26T16:46:15.108Z,767.23
2022-08-26T16:48:41.559Z,768.00
2022-08-26T16:51:08.009Z,764.23
2022-08-26T16:53:34.464Z,760.03
2022-08-26T16:56:01.118Z,763.80
2022-08-26T16:58:27.552Z,766.63
2022-08-26T17:00:54.008Z,763.00
2022-08-26T17:03:20.450Z,765.77
2022-08-26T17:05:47.937Z,767.20
2022-08-26T17:08:28.295Z,762.83
2022-08-26T17:10:55.313Z,761.47
2022-08-26T17:13:34.898Z,759.30
2022-08-26T17:16:02.561Z,766.50
2022-08-26T17:18:30.816Z,761.03
2022-08-26T17:20:57.255Z,759.17
2022-08-26T17:23:23.680Z,766.47
2022-08-26T17:25:50.148Z,766.03
2022-08-26T17:28:16.637Z,762.30
2022-08-26T17:30:43.138Z,768.40
2022-08-26T17:33:10.955Z,767.87
2022-08-26T17:35:37.753Z,762.90
2022-08-26T17:38:04.192Z,763.80
2022-08-26T17:40:30.709Z,765.93
2022-08-26T17:42:57.218Z,767.30
2022-08-26T17:45:23.859Z,764.20
2022-08-26T17:47:50.305Z,768.23
2022-08-26T17:50:16.752Z,770.80
2022-08-26T17:52:43.209Z,765.60
2022-08-26T17:55:09.657Z,763.27
2022-08-26T17:57:40.476Z,765.73
2022-08-26T18:00:07.210Z,765.10
2022-08-26T18:02:33.644Z,767.90
2022-08-26T18:05:00.355Z,767.50
2022-08-26T18:07:27.196Z,776.13
2022-08-26T18:09:53.665Z,765.60
2022-08-26T18:12:20.106Z,769.10
2022-08-26T18:14:46.597Z,769.20
2022-08-26T18:17:13.040Z,760.27
2022-08-26T18:22:08.110Z,764.33
2022-08-26T18:24:34.578Z,772.13
2022-08-26T18:27:01.033Z,769.60
2022-08-26T18:29:27.483Z,768.47
2022-08-26T18:31:53.918Z,765.70
2022-08-26T18:34:20.385Z,765.30
2022-08-26T18:36:46.851Z,765.33
2022-08-26T18:39:13.294Z,764.83
2022-08-26T18:41:41.885Z,768.83
2022-08-26T18:44:10.541Z,767.00
2022-08-26T18:46:39.844Z,760.63
2022-08-26T18:49:06.350Z,757.53
2022-08-26T18:51:32.827Z,765.40
2022-08-26T18:53:59.250Z,765.70
2022-08-26T18:56:25.714Z,765.33
2022-08-26T18:58:52.132Z,764.43
2022-08-26T19:01:18.711Z,766.93
2022-08-26T19:03:45.255Z,763.50
2022-08-26T19:06:11.751Z,760.23
2022-08-26T19:08:38.232Z,760.70
2022-08-26T19:11:11.137Z,764.67
2022-08-26T19:13:40.342Z,763.87
2022-08-26T19:16:06.800Z,762.03
2022-08-26T19:18:33.240Z,756.27
2022-08-26T19:21:00.803Z,762.87
2022-08-26T19:23:32.084Z,765.50
2022-08-26T19:25:59.078Z,760.30
2022-08-26T19:28:25.543Z,762.87
2022-08-26T19:30:53.222Z,761.07
2022-08-26T19:33:19.894Z,763.50
2022-08-26T19:35:46.376Z,767.63
2022-08-26T19:38:12.891Z,765.07
2022-08-26T19:40:39.356Z,762.03
2022-08-26T19:43:05.818Z,761.33
2022-08-26T19:45:33.039Z,765.93
2022-08-26T19:47:59.516Z,763.77
2022-08-26T19:50:25.979Z,765.60
2022-08-26T19:52:52.424Z,765.43
2022-08-26T19:55:18.891Z,764.13
2022-08-26T19:57:45.357Z,770.50
2022-08-26T20:00:11.805Z,764.10
2022-08-26T20:02:38.303Z,758.20
2022-08-26T20:05:04.779Z,762.63
2022-08-26T20:07:31.212Z,760.43
2022-08-26T20:09:57.678Z,757.83
2022-08-26T20:12:24.122Z,762.23
2022-08-26T20:14:50.571Z,759.43
2022-08-26T20:17:16.999Z,759.93
2022-08-26T20:19:43.450Z,759.40
2022-08-26T20:22:09.906Z,768.50
2022-08-26T20:24:36.351Z,763.30
2022-08-26T20:27:07.280Z,761.73
2022-08-26T20:29:34.327Z,763.50
2022-08-26T20:32:00.851Z,764.23
2022-08-26T20:34:27.351Z,759.90
2022-08-26T20:36:53.807Z,760.77
2022-08-26T20:39:23.336Z,764.83
2022-08-26T20:41:49.780Z,758.20
2022-08-26T20:44:16.209Z,760.80
2022-08-26T20:46:42.665Z,756.30
2022-08-26T20:49:12.129Z,760.93
2022-08-26T20:51:39.423Z,755.33
2022-08-26T20:54:05.864Z,758.53
2022-08-26T20:56:32.323Z,758.00
2022-08-26T20:58:58.780Z,755.00
2022-08-26T21:01:25.339Z,757.67
2022-08-26T21:03:51.857Z,756.60
2022-08-26T21:06:18.517Z,758.70
2022-08-26T21:08:45.024Z,759.50
2022-08-26T21:11:11.522Z,757.60
2022-08-26T21:14:01.208Z,762.73
2022-08-26T21:16:24.609Z,759.23
2022-08-26T21:18:51.076Z,766.93
2022-08-26T21:21:17.590Z,712.90
2022-08-26T21:23:44.299Z,739.57
2022-08-26T21:26:10.738Z,755.23
2022-08-26T21:28:37.174Z,766.23
2022-08-26T21:31:03.620Z,760.87
2022-08-26T21:33:30.036Z,760.83
2022-08-26T21:35:56.478Z,762.13
2022-08-26T21:38:22.914Z,767.70
2022-08-26T21:40:49.412Z,763.53
2022-08-26T21:43:33.729Z,757.40
2022-08-26T21:46:02.094Z,754.60
2022-08-26T21:48:32.253Z,757.30
2022-08-26T21:51:01.120Z,753.60
2022-08-26T21:53:27.593Z,754.23
2022-08-26T21:55:54.055Z,756.83
2022-08-26T21:58:20.534Z,751.00
2022-08-26T22:00:47.029Z,751.47
2022-08-26T22:03:13.992Z,747.93
2022-08-26T22:05:40.480Z,749.73
2022-08-26T22:08:06.977Z,744.63
2022-08-26T22:10:33.494Z,748.73
2022-08-26T22:12:59.946Z,743.33
2022-08-26T22:15:26.414Z,745.60
2022-08-26T22:17:52.872Z,744.17
2022-08-26T22:20:19.402Z,744.90
2022-08-26T22:22:48.739Z,745.90
2022-08-26T22:25:15.222Z,743.17
2022-08-26T22:27:42.866Z,750.90
2022-08-26T22:30:09.471Z,754.73
2022-08-26T22:32:38.201Z,750.70
2022-08-26T22:35:17.597Z,756.50
2022-08-26T22:37:51.151Z,742.20
2022-08-26T22:40:20.766Z,743.40
2022-08-26T22:42:55.597Z,754.37
2022-08-26T22:45:25.178Z,757.20
2022-08-26T22:47:51.641Z,752.77
2022-08-26T22:50:18.113Z,748.47
2022-08-26T22:52:44.556Z,754.83
2022-08-26T22:55:11.030Z,753.80
2022-08-26T22:57:37.501Z,752.40
2022-08-26T23:00:03.937Z,752.73
2022-08-26T23:02:30.383Z,748.87
2022-08-26T23:04:56.859Z,755.63
2022-08-26T23:07:23.322Z,757.20
2022-08-26T23:09:49.767Z,761.60
2022-08-26T23:12:16.228Z,754.67
2022-08-26T23:14:42.651Z,751.00
2022-08-26T23:17:09.095Z,751.93
2022-08-26T23:19:35.529Z,751.40
2022-08-26T23:22:01.980Z,747.90
2022-08-26T23:24:28.419Z,748.43
2022-08-26T23:26:54.880Z,749.77
2022-08-26T23:29:21.320Z,742.47
2022-08-26T23:31:47.867Z,749.67
2022-08-26T23:34:14.317Z,753.17
2022-08-26T23:36:40.958Z,756.40
2022-08-26T23:39:07.382Z,760.30
2022-08-26T23:41:33.838Z,758.13
2022-08-26T23:44:03.389Z,757.57
2022-08-26T23:46:30.165Z,760.43
2022-08-26T23:48:56.602Z,761.23
2022-08-26T23:51:23.055Z,759.53
2022-08-26T23:53:49.547Z,759.73
2022-08-26T23:56:15.994Z,761.87
2022-08-26T23:58:42.437Z,766.67
